Terminal Aerodrome Forecast
Issued by NWS Mt. Holly, NJ

Home | Current Version | Previous Version | Text Only | Print | Product List | Glossary On
Versions: 1 2 3 4 5 6 7 8 9 10 11 12 13 14 15 16 17 18 19 20 21 22 23 24 25 26 27 28 29 30 31 32 33 34 35 36 37 38 39 40 41 42 43 44 45 46 47 48 49 50
680
FTUS41 KPHI 221011 AAB
TAFABE
TAF AMD
KABE 221011Z 2210/2306 00000KT 1/2SM FG VV002
      TEMPO 2210/2212 1/4SM FG
     FM221600 06003KT 2SM BR OVC004
     FM222100 06008KT 1SM -DZ BR OVC002
     FM230400 07015G25KT 1/2SM FG OVC003=

USA.gov is the U.S. government's official web portal to all federal, state and local government web resources and services.